createdAt,value
2022-12-10T00:01:07.020Z,2.77
2022-12-10T00:03:33.505Z,2.76
2022-12-10T00:06:04.264Z,2.71
2022-12-10T00:08:30.744Z,2.71
2022-12-10T00:10:57.457Z,2.72
2022-12-10T00:13:23.920Z,2.73
2022-12-10T00:15:50.761Z,2.75
2022-12-10T00:18:17.187Z,2.68
2022-12-10T00:20:43.635Z,2.70
2022-12-10T00:23:10.025Z,2.71
2022-12-10T00:25:36.396Z,2.70
2022-12-10T00:28:02.816Z,2.72
2022-12-10T00:30:29.187Z,2.73
2022-12-10T00:32:55.621Z,2.72
2022-12-10T00:35:22.188Z,2.70
2022-12-10T00:37:48.566Z,2.73
2022-12-10T00:40:14.932Z,2.74
2022-12-10T00:42:41.327Z,2.76
2022-12-10T00:45:07.962Z,2.76
2022-12-10T00:47:34.504Z,2.78
2022-12-10T00:50:00.895Z,2.77
2022-12-10T00:52:27.592Z,2.77
2022-12-10T00:54:53.977Z,2.78
2022-12-10T00:57:20.337Z,2.78
2022-12-10T00:59:46.746Z,2.79
2022-12-10T01:02:13.357Z,2.80
2022-12-10T01:04:39.742Z,2.77
2022-12-10T01:07:11.099Z,2.78
2022-12-10T01:09:37.939Z,2.80
2022-12-10T01:12:04.792Z,2.78
2022-12-10T01:14:34.511Z,2.80
2022-12-10T01:17:03.839Z,2.78
2022-12-10T01:19:30.608Z,2.70
2022-12-10T01:21:57.772Z,2.66
2022-12-10T01:24:25.388Z,2.66
2022-12-10T01:26:51.964Z,2.69
2022-12-10T01:29:18.716Z,2.69
2022-12-10T01:31:45.453Z,2.70
2022-12-10T01:34:12.923Z,2.72
2022-12-10T01:36:40.696Z,2.73
2022-12-10T01:39:08.974Z,2.74
2022-12-10T01:41:37.282Z,2.75
2022-12-10T01:44:09.445Z,2.77
2022-12-10T01:46:37.345Z,2.79
2022-12-10T01:49:05.416Z,2.76
2022-12-10T01:51:32.876Z,2.73
2022-12-10T01:53:59.671Z,2.73
2022-12-10T01:56:26.135Z,2.76
2022-12-10T01:58:54.055Z,2.77
2022-12-10T02:01:24.990Z,2.72
2022-12-10T02:04:09.824Z,2.71
2022-12-10T02:06:46.402Z,2.75
2022-12-10T02:09:26.888Z,2.77
2022-12-10T02:12:01.761Z,2.77
2022-12-10T02:14:39.093Z,2.79
2022-12-10T02:17:15.965Z,2.83
2022-12-10T02:20:08.861Z,2.84
2022-12-10T02:22:39.966Z,2.84
2022-12-10T02:25:08.546Z,2.84
2022-12-10T02:27:52.543Z,2.85
2022-12-10T02:30:19.234Z,2.82
2022-12-10T02:32:46.812Z,2.80
2022-12-10T02:35:16.571Z,2.80
2022-12-10T02:37:46.416Z,2.78
2022-12-10T02:40:16.079Z,2.77
2022-12-10T02:42:44.992Z,2.80
2022-12-10T02:45:11.990Z,2.83
2022-12-10T02:47:39.728Z,2.83
2022-12-10T02:50:07.470Z,2.86
2022-12-10T02:52:34.176Z,2.88
2022-12-10T02:55:00.618Z,2.86
2022-12-10T02:57:53.075Z,2.87
2022-12-10T03:00:20.807Z,2.90
2022-12-10T03:03:04.617Z,2.92
2022-12-10T03:05:36.835Z,2.94
2022-12-10T03:08:11.675Z,2.96
2022-12-10T03:10:58.355Z,2.96
2022-12-10T03:13:29.490Z,2.95
2022-12-10T03:15:57.645Z,2.93
2022-12-10T03:18:26.041Z,2.91
2022-12-10T03:20:54.888Z,2.92
2022-12-10T03:23:21.369Z,2.92
2022-12-10T03:25:51.144Z,2.90
2022-12-10T03:28:19.298Z,2.89
2022-12-10T03:30:47.612Z,2.92
2022-12-10T03:33:14.432Z,2.91
2022-12-10T03:35:40.940Z,2.92
2022-12-10T03:38:07.787Z,2.93
2022-12-10T03:40:34.367Z,2.91
2022-12-10T03:43:00.749Z,2.91
2022-12-10T03:45:27.194Z,2.94
2022-12-10T03:47:53.672Z,2.94
2022-12-10T03:50:20.134Z,2.96
2022-12-10T03:52:46.808Z,2.96
2022-12-10T03:55:13.320Z,2.97
2022-12-10T03:57:39.708Z,2.97
2022-12-10T04:00:07.189Z,2.95
2022-12-10T04:02:33.868Z,2.95
2022-12-10T04:05:00.365Z,2.94
2022-12-10T04:07:26.808Z,2.94
2022-12-10T04:09:53.234Z,2.92
2022-12-10T04:12:19.628Z,2.88
2022-12-10T04:15:04.897Z,2.89
2022-12-10T04:17:32.622Z,2.91
2022-12-10T04:19:58.988Z,2.92
2022-12-10T04:22:44.252Z,2.93
2022-12-10T04:25:30.628Z,2.94
2022-12-10T04:27:57.086Z,2.96
2022-12-10T04:30:23.542Z,2.96
2022-12-10T04:32:50.021Z,2.99
2022-12-10T04:35:16.462Z,2.98
2022-12-10T04:37:42.835Z,2.96
2022-12-10T04:40:09.877Z,2.96
2022-12-10T04:42:36.468Z,2.97
2022-12-10T04:45:02.993Z,2.94
2022-12-10T04:47:29.388Z,2.93
2022-12-10T04:49:55.790Z,2.92
2022-12-10T04:52:22.182Z,2.91
2022-12-10T04:54:48.610Z,2.90
2022-12-10T04:57:15.230Z,2.91
2022-12-10T04:59:41.666Z,2.85
2022-12-10T05:02:08.275Z,2.83
2022-12-10T05:04:34.969Z,2.85
2022-12-10T05:07:01.558Z,2.86
2022-12-10T05:09:27.981Z,2.86
2022-12-10T05:11:54.374Z,2.88
2022-12-10T05:14:20.934Z,2.91
2022-12-10T05:16:49.708Z,2.87
2022-12-10T05:19:16.304Z,2.79
2022-12-10T05:22:01.336Z,2.75
2022-12-10T05:24:27.771Z,2.76
2022-12-10T05:26:54.146Z,2.80
2022-12-10T05:29:20.535Z,2.83
2022-12-10T05:31:47.017Z,2.86
2022-12-10T05:34:13.434Z,2.88
2022-12-10T05:36:39.893Z,2.87
2022-12-10T05:39:06.366Z,2.88
2022-12-10T05:41:35.257Z,2.92
2022-12-10T05:44:02.088Z,2.92
2022-12-10T05:46:30.313Z,2.91
2022-12-10T05:48:57.265Z,2.92
2022-12-10T05:51:25.876Z,2.93
2022-12-10T05:53:52.886Z,2.94
2022-12-10T05:56:20.435Z,2.92
2022-12-10T05:58:47.818Z,2.93
2022-12-10T06:01:19.172Z,2.91
2022-12-10T06:03:45.971Z,2.80
2022-12-10T06:06:12.746Z,2.76
2022-12-10T06:08:39.331Z,2.72
2022-12-10T06:11:10.176Z,2.72
2022-12-10T06:13:37.051Z,2.76
2022-12-10T06:16:07.989Z,2.72
2022-12-10T06:18:34.766Z,2.74
2022-12-10T06:21:03.932Z,2.72
2022-12-10T06:23:30.395Z,2.74
2022-12-10T06:25:56.770Z,2.70
2022-12-10T06:28:23.141Z,2.71
2022-12-10T06:30:49.615Z,2.76
2022-12-10T06:33:15.985Z,2.69
2022-12-10T06:35:42.358Z,2.67
2022-12-10T06:38:08.752Z,2.62
2022-12-10T06:40:35.123Z,2.61
2022-12-10T06:43:01.552Z,2.63
2022-12-10T06:45:27.924Z,2.66
2022-12-10T06:47:54.401Z,2.61
2022-12-10T06:50:20.785Z,2.56
2022-12-10T06:52:50.514Z,2.59
2022-12-10T06:55:21.051Z,2.58
2022-12-10T06:57:47.484Z,2.59
2022-12-10T07:00:17.820Z,2.61
2022-12-10T07:02:47.301Z,2.66
2022-12-10T07:05:13.757Z,2.71
2022-12-10T07:07:40.140Z,2.75
2022-12-10T07:10:07.258Z,2.77
2022-12-10T07:12:33.866Z,2.82
2022-12-10T07:15:00.246Z,2.79
2022-12-10T07:17:26.651Z,2.76
2022-12-10T07:19:53.032Z,2.79
2022-12-10T07:22:19.431Z,2.72
2022-12-10T07:24:45.964Z,2.68
2022-12-10T07:27:12.600Z,2.67
2022-12-10T07:29:39.001Z,2.62
2022-12-10T07:32:05.451Z,2.54
2022-12-10T07:34:31.828Z,2.50
2022-12-10T07:36:58.241Z,2.48
2022-12-10T07:39:24.676Z,2.49
2022-12-10T07:41:53.167Z,2.47
2022-12-10T07:44:28.390Z,2.51
2022-12-10T07:46:56.174Z,2.46
2022-12-10T07:49:22.981Z,2.48
2022-12-10T07:51:50.066Z,2.53
2022-12-10T07:54:16.959Z,2.59
2022-12-10T07:56:43.867Z,2.57
2022-12-10T07:59:10.290Z,2.61
2022-12-10T08:01:36.783Z,2.63
2022-12-10T08:04:03.215Z,2.62
2022-12-10T08:06:29.965Z,2.61
2022-12-10T08:08:56.746Z,2.63
2022-12-10T08:11:23.570Z,2.65
2022-12-10T08:13:56.272Z,2.69
2022-12-10T08:16:26.160Z,2.67
2022-12-10T08:18:53.056Z,2.69
2022-12-10T08:21:20.556Z,2.72
2022-12-10T08:23:47.323Z,2.76
2022-12-10T08:26:25.590Z,2.80
2022-12-10T08:28:53.889Z,2.84
2022-12-10T08:31:20.805Z,2.88
2022-12-10T08:33:47.368Z,2.93
2022-12-10T08:36:15.298Z,2.92
2022-12-10T08:38:42.373Z,2.95
2022-12-10T08:41:09.736Z,2.91
2022-12-10T08:43:36.146Z,2.91
2022-12-10T08:46:02.699Z,2.93
2022-12-10T08:48:29.416Z,2.88
2022-12-10T08:50:55.877Z,2.83
2022-12-10T08:53:22.771Z,2.74
2022-12-10T08:55:52.324Z,2.73
2022-12-10T08:58:18.770Z,2.78
2022-12-10T09:00:45.715Z,2.74
2022-12-10T09:03:12.297Z,2.71
2022-12-10T09:05:38.790Z,2.76
2022-12-10T09:08:05.325Z,2.73
2022-12-10T09:10:32.140Z,2.74
2022-12-10T09:13:02.931Z,2.76
2022-12-10T09:15:29.990Z,2.82
2022-12-10T09:17:56.353Z,2.78
2022-12-10T09:20:23.249Z,2.77
2022-12-10T09:22:49.676Z,2.76
2022-12-10T09:25:17.827Z,2.73
2022-12-10T09:27:44.579Z,2.77
2022-12-10T09:30:11.883Z,2.80
2022-12-10T09:32:38.316Z,2.79
2022-12-10T09:35:05.308Z,2.78
2022-12-10T09:37:31.983Z,2.80
2022-12-10T09:39:58.492Z,2.76
2022-12-10T09:42:33.407Z,2.84
2022-12-10T09:45:19.525Z,2.95
2022-12-10T09:48:06.299Z,3.02
2022-12-10T09:50:37.517Z,3.08
2022-12-10T09:53:05.854Z,3.06
2022-12-10T09:55:41.298Z,2.96
2022-12-10T09:58:14.751Z,2.96
2022-12-10T10:00:42.639Z,2.98
2022-12-10T10:03:13.339Z,2.98
2022-12-10T10:05:41.886Z,2.96
2022-12-10T10:08:14.509Z,2.98
2022-12-10T10:10:41.846Z,3.03
2022-12-10T10:13:08.229Z,3.03
2022-12-10T10:15:36.040Z,3.00
2022-12-10T10:18:05.900Z,2.95
2022-12-10T10:20:32.461Z,2.93
2022-12-10T10:23:00.164Z,2.94
2022-12-10T10:25:27.220Z,2.91
2022-12-10T10:27:53.640Z,2.90
2022-12-10T10:30:22.069Z,2.89
2022-12-10T10:32:51.774Z,2.93
2022-12-10T10:35:29.750Z,2.97
2022-12-10T10:38:00.940Z,2.96
2022-12-10T10:40:29.831Z,2.92
2022-12-10T10:42:58.053Z,2.87
2022-12-10T10:45:33.575Z,2.85
2022-12-10T10:48:08.031Z,2.81
2022-12-10T10:50:42.247Z,2.74
2022-12-10T10:53:25.852Z,2.75
2022-12-10T10:55:54.740Z,2.74
2022-12-10T10:58:21.718Z,2.71
2022-12-10T11:01:01.952Z,2.74
2022-12-10T11:03:29.766Z,2.75
2022-12-10T11:05:57.537Z,2.74
2022-12-10T11:08:25.953Z,2.74
2022-12-10T11:10:56.159Z,2.71
2022-12-10T11:13:30.337Z,2.61
2022-12-10T11:15:59.131Z,2.62
2022-12-10T11:18:25.517Z,2.72
2022-12-10T11:21:01.608Z,2.76
2022-12-10T11:23:29.836Z,2.71
2022-12-10T11:26:03.922Z,2.70
2022-12-10T11:28:45.590Z,2.65
2022-12-10T11:31:29.031Z,2.63
2022-12-10T11:33:55.389Z,2.51
2022-12-10T11:36:45.212Z,2.46
2022-12-10T11:39:30.631Z,2.49
2022-12-10T11:42:05.303Z,2.51
2022-12-10T11:44:39.066Z,2.42
2022-12-10T11:47:06.289Z,2.44
2022-12-10T11:49:32.675Z,2.48
2022-12-10T11:52:05.797Z,2.46
2022-12-10T11:54:35.305Z,2.39
2022-12-10T11:57:09.928Z,2.44
2022-12-10T12:00:05.438Z,2.49
2022-12-10T12:02:35.391Z,2.40
2022-12-10T12:05:21.784Z,2.39
2022-12-10T12:08:06.220Z,2.42
2022-12-10T12:10:55.164Z,2.36
2022-12-10T12:13:25.956Z,2.41
2022-12-10T12:16:01.307Z,2.55
2022-12-10T12:18:27.745Z,2.62
2022-12-10T12:20:59.590Z,2.59
2022-12-10T12:23:32.072Z,2.56
2022-12-10T12:26:02.632Z,2.58
2022-12-10T12:28:33.650Z,2.52
2022-12-10T12:31:02.871Z,2.57
2022-12-10T12:33:34.058Z,2.52
2022-12-10T12:36:20.671Z,2.56
2022-12-10T12:39:02.337Z,2.58
2022-12-10T12:41:40.690Z,2.57
2022-12-10T12:44:30.810Z,2.39
2022-12-10T12:46:58.481Z,2.31
2022-12-10T12:49:30.223Z,2.28
2022-12-10T12:52:01.088Z,2.36
2022-12-10T12:54:27.525Z,2.43
2022-12-10T12:56:54.239Z,2.44
2022-12-10T12:59:40.272Z,2.34
2022-12-10T13:02:12.823Z,2.21
2022-12-10T13:04:39.451Z,2.12
2022-12-10T13:07:15.026Z,2.08
2022-12-10T13:10:11.220Z,2.08
2022-12-10T13:12:37.724Z,2.05
2022-12-10T13:15:22.560Z,2.09
2022-12-10T13:18:03.592Z,2.14
2022-12-10T13:20:31.051Z,2.22
2022-12-10T13:23:04.980Z,2.26
2022-12-10T13:25:42.713Z,2.28
2022-12-10T13:28:23.208Z,2.14
2022-12-10T13:31:04.678Z,2.16
2022-12-10T13:33:46.395Z,2.13
2022-12-10T13:36:13.066Z,2.11
2022-12-10T13:38:40.745Z,2.11
2022-12-10T13:41:26.564Z,2.07
2022-12-10T13:44:12.751Z,2.14
2022-12-10T13:46:59.649Z,2.17
2022-12-10T13:49:28.664Z,2.24
2022-12-10T13:51:55.086Z,2.22
2022-12-10T13:54:21.471Z,2.24
2022-12-10T13:56:56.976Z,2.21
2022-12-10T13:59:37.899Z,2.16
2022-12-10T14:02:14.291Z,2.07
2022-12-10T14:04:52.843Z,2.03
2022-12-10T14:07:20.253Z,2.02
2022-12-10T14:09:52.387Z,1.98
2022-12-10T14:12:24.190Z,1.95
2022-12-10T14:14:56.774Z,2.01
2022-12-10T14:17:25.702Z,1.99
2022-12-10T14:19:55.438Z,1.97
2022-12-10T14:22:35.039Z,1.85
2022-12-10T14:25:03.607Z,1.89
2022-12-10T14:27:30.118Z,1.95
2022-12-10T14:30:00.845Z,1.93
2022-12-10T14:32:37.597Z,1.94
2022-12-10T14:35:05.457Z,2.02
2022-12-10T14:37:34.639Z,2.00
2022-12-10T14:40:01.186Z,2.04
2022-12-10T14:42:28.093Z,2.01
2022-12-10T14:44:59.474Z,1.91
2022-12-10T14:47:25.974Z,1.92
2022-12-10T14:49:55.808Z,2.00
2022-12-10T14:52:24.228Z,2.07
2022-12-10T14:54:51.451Z,2.15
2022-12-10T14:57:39.262Z,2.20
2022-12-10T15:00:10.213Z,2.27
2022-12-10T15:02:42.251Z,2.25
2022-12-10T15:05:11.856Z,2.16
2022-12-10T15:07:38.699Z,2.11
2022-12-10T15:10:14.613Z,2.11
2022-12-10T15:12:50.414Z,2.04
2022-12-10T15:15:37.007Z,1.92
2022-12-10T15:18:10.076Z,1.86
2022-12-10T15:20:59.540Z,1.82
2022-12-10T15:23:28.942Z,1.71
2022-12-10T15:25:58.347Z,1.75
2022-12-10T15:28:35.251Z,1.80
2022-12-10T15:31:10.811Z,1.82
2022-12-10T15:33:43.944Z,1.74
2022-12-10T15:36:17.703Z,1.80
2022-12-10T15:38:44.841Z,1.77
2022-12-10T15:41:24.774Z,1.81
2022-12-10T15:44:11.405Z,1.84
2022-12-10T15:46:47.507Z,1.90
2022-12-10T15:49:13.897Z,1.95
2022-12-10T15:51:40.282Z,1.98
2022-12-10T15:54:25.520Z,1.89
2022-12-10T15:56:51.955Z,1.81
2022-12-10T15:59:18.375Z,1.79
2022-12-10T16:01:45.907Z,1.81
2022-12-10T16:04:12.864Z,1.76
2022-12-10T16:06:39.302Z,1.76
2022-12-10T16:09:05.695Z,1.76
2022-12-10T16:11:32.231Z,1.85
2022-12-10T16:13:58.803Z,1.92
2022-12-10T16:16:25.777Z,2.00
2022-12-10T16:18:52.257Z,1.95
2022-12-10T16:21:19.011Z,1.96
2022-12-10T16:23:45.487Z,1.95
2022-12-10T16:26:19.686Z,1.87
2022-12-10T16:28:46.586Z,1.86
2022-12-10T16:31:15.276Z,1.84
2022-12-10T16:33:41.936Z,1.66
2022-12-10T16:36:08.745Z,1.66
2022-12-10T16:38:35.196Z,1.73
2022-12-10T16:41:02.360Z,1.70
2022-12-10T16:43:29.999Z,1.72
2022-12-10T16:45:57.120Z,1.67
2022-12-10T16:48:23.716Z,1.62
2022-12-10T16:50:51.285Z,1.56
2022-12-10T16:53:23.841Z,1.55
2022-12-10T16:55:50.929Z,1.51
2022-12-10T16:58:17.835Z,1.61
2022-12-10T17:00:54.122Z,1.64
2022-12-10T17:03:25.447Z,1.59
2022-12-10T17:05:53.332Z,1.60
2022-12-10T17:08:20.804Z,1.70
2022-12-10T17:11:06.668Z,1.73
2022-12-10T17:13:33.825Z,1.74
2022-12-10T17:16:00.225Z,1.82
2022-12-10T17:18:26.800Z,1.90
2022-12-10T17:20:53.178Z,1.85
2022-12-10T17:23:19.679Z,1.80
2022-12-10T17:25:46.269Z,1.77
2022-12-10T17:28:14.129Z,1.82
2022-12-10T17:30:40.632Z,1.83
2022-12-10T17:33:07.031Z,1.88
2022-12-10T17:35:33.514Z,1.93
2022-12-10T17:37:59.954Z,1.92
2022-12-10T17:40:26.398Z,1.91
2022-12-10T17:42:52.840Z,1.80
2022-12-10T17:45:22.555Z,1.86
2022-12-10T17:47:49.296Z,1.89
2022-12-10T17:50:18.744Z,1.92
2022-12-10T17:52:45.160Z,1.90
2022-12-10T17:55:11.583Z,1.84
2022-12-10T17:57:37.986Z,1.89
2022-12-10T18:00:11.381Z,1.81
2022-12-10T18:02:38.040Z,1.79
2022-12-10T18:05:04.604Z,1.82
2022-12-10T18:07:30.993Z,1.83
2022-12-10T18:09:57.987Z,1.83
2022-12-10T18:12:24.743Z,1.74
2022-12-10T18:14:51.263Z,1.70
2022-12-10T18:17:18.017Z,1.69
2022-12-10T18:19:47.861Z,1.67
2022-12-10T18:22:17.055Z,1.65
2022-12-10T18:24:43.444Z,1.64
2022-12-10T18:27:11.034Z,1.71
2022-12-10T18:29:37.581Z,1.69
2022-12-10T18:32:04.246Z,1.62
2022-12-10T18:34:30.668Z,1.59
2022-12-10T18:36:57.770Z,1.62
2022-12-10T18:39:25.637Z,1.52
2022-12-10T18:41:52.591Z,1.53
2022-12-10T18:44:22.186Z,1.53
2022-12-10T18:46:49.192Z,1.54
2022-12-10T18:49:15.727Z,1.59
2022-12-10T18:51:42.608Z,1.65
2022-12-10T18:54:09.389Z,1.64
2022-12-10T18:56:36.119Z,1.61
2022-12-10T18:59:03.576Z,1.58
2022-12-10T19:01:30.798Z,1.61
2022-12-10T19:03:58.091Z,1.58
2022-12-10T19:06:26.302Z,1.51
2022-12-10T19:11:40.471Z,1.33
2022-12-10T19:14:07.043Z,1.34
2022-12-10T19:16:33.463Z,1.31
2022-12-10T19:19:05.314Z,1.38
2022-12-10T19:21:32.308Z,1.42
2022-12-10T19:23:58.922Z,1.32
2022-12-10T19:26:30.637Z,1.28
2022-12-10T19:28:57.157Z,1.27
2022-12-10T19:31:23.753Z,1.29
2022-12-10T19:33:50.365Z,1.27
2022-12-10T19:36:21.325Z,1.10
2022-12-10T19:38:48.157Z,1.08
2022-12-10T19:41:14.782Z,1.08
2022-12-10T19:43:41.678Z,1.08
2022-12-10T19:46:15.526Z,1.11
2022-12-10T19:48:42.337Z,1.02
2022-12-10T19:51:09.625Z,1.00
2022-12-10T19:53:36.716Z,1.10
2022-12-10T19:56:03.892Z,1.18
2022-12-10T19:58:30.301Z,1.18
2022-12-10T20:00:56.982Z,1.16
2022-12-10T20:03:23.391Z,1.10
2022-12-10T20:05:49.822Z,1.13
2022-12-10T20:08:16.337Z,1.16
2022-12-10T20:10:42.879Z,1.15
2022-12-10T20:13:09.346Z,1.20
2022-12-10T20:15:35.885Z,1.23
2022-12-10T20:18:02.638Z,1.18
2022-12-10T20:20:29.669Z,1.05
2022-12-10T20:22:56.119Z,0.96
2022-12-10T20:25:23.492Z,0.90
2022-12-10T20:27:50.458Z,0.87
2022-12-10T20:30:28.033Z,0.88
2022-12-10T20:32:55.076Z,0.86
2022-12-10T20:35:22.545Z,0.85
2022-12-10T20:37:49.373Z,0.87
2022-12-10T20:40:33.822Z,0.86
2022-12-10T20:43:00.963Z,0.82
2022-12-10T20:45:27.448Z,0.74
2022-12-10T20:47:54.393Z,0.83
2022-12-10T20:50:20.820Z,0.90
2022-12-10T20:52:47.402Z,0.96
2022-12-10T20:55:14.332Z,0.86
2022-12-10T20:57:40.823Z,0.77
2022-12-10T21:00:15.992Z,0.76
2022-12-10T21:02:42.849Z,0.75
2022-12-10T21:05:09.801Z,0.66
2022-12-10T21:07:36.503Z,0.74
2022-12-10T21:10:03.691Z,0.83
2022-12-10T21:12:30.109Z,0.72
2022-12-10T21:15:02.322Z,0.65
2022-12-10T21:17:32.130Z,0.59
2022-12-10T21:19:58.739Z,0.56
2022-12-10T21:22:25.135Z,0.57
2022-12-10T21:24:51.656Z,0.65
2022-12-10T21:27:18.335Z,0.66
2022-12-10T21:29:44.742Z,0.68
2022-12-10T21:32:11.184Z,0.57
2022-12-10T21:34:37.782Z,0.44
2022-12-10T21:37:04.163Z,0.45
2022-12-10T21:39:30.582Z,0.42
2022-12-10T21:42:15.542Z,0.40
2022-12-10T21:44:42.242Z,0.40
2022-12-10T21:47:08.829Z,0.45
2022-12-10T21:49:35.246Z,0.47
2022-12-10T21:52:01.660Z,0.47
2022-12-10T21:54:28.332Z,0.50
2022-12-10T21:56:54.727Z,0.54
2022-12-10T21:59:21.110Z,0.41
2022-12-10T22:01:47.563Z,0.38
2022-12-10T22:04:17.404Z,0.34
2022-12-10T22:06:44.377Z,0.29
2022-12-10T22:09:13.872Z,0.20
2022-12-10T22:11:40.340Z,0.18
2022-12-10T22:14:07.066Z,0.18
2022-12-10T22:16:33.588Z,0.23
2022-12-10T22:19:00.075Z,0.28
2022-12-10T22:21:26.653Z,0.31
2022-12-10T22:23:53.502Z,0.23
2022-12-10T22:26:20.570Z,0.16
2022-12-10T22:28:47.223Z,0.17
2022-12-10T22:31:14.109Z,0.25
2022-12-10T22:33:40.591Z,0.26
2022-12-10T22:36:08.106Z,0.30
2022-12-10T22:38:35.358Z,0.28
2022-12-10T22:41:02.342Z,0.27
2022-12-10T22:43:49.977Z,0.19
2022-12-10T22:46:15.197Z,0.19
2022-12-10T22:48:41.907Z,0.16
2022-12-10T22:51:09.053Z,0.19
2022-12-10T22:53:35.725Z,0.15
2022-12-10T22:56:06.675Z,0.19
2022-12-10T22:58:33.388Z,0.11
2022-12-10T23:00:59.993Z,0.09
2022-12-10T23:03:26.930Z,0.06
2022-12-10T23:05:53.444Z,0.01
2022-12-10T23:08:20.127Z,-0.09
2022-12-10T23:10:47.008Z,-0.11
2022-12-10T23:13:16.383Z,-0.12
2022-12-10T23:15:42.946Z,-0.14
2022-12-10T23:18:10.005Z,-0.08
2022-12-10T23:20:36.393Z,-0.07
2022-12-10T23:23:02.863Z,-0.13
2022-12-10T23:25:29.530Z,-0.11
2022-12-10T23:27:55.938Z,-0.15
2022-12-10T23:30:22.423Z,-0.16
2022-12-10T23:32:48.860Z,-0.23
2022-12-10T23:35:15.368Z,-0.24
2022-12-10T23:37:41.846Z,-0.22
2022-12-10T23:40:08.660Z,-0.24
2022-12-10T23:42:35.053Z,-0.14
2022-12-10T23:45:01.940Z,-0.14
2022-12-10T23:47:28.509Z,-0.08
2022-12-10T23:49:54.958Z,-0.07
2022-12-10T23:52:21.413Z,-0.07
2022-12-10T23:54:47.813Z,-0.07
2022-12-10T23:57:14.240Z,-0.07
2022-12-10T23:59:40.668Z,-0.16
